Rawlinsville, Pennsylvania
Current Conditions -  °F | °C
As of 5:25 AM on Wednesday 22 Oct 2014 (Local Time) from KLNS Reporting Station
Overcast Overcast  
Wind Chill: 54°   Ceiling: 2100
Heat Index: 54°   Visibility: 10mi
Dew Point: 48°   Wind: 8mph
Humidity: 80%   Direction: 20°NNE
Pressure: 29.89"   Gusts: NA
Location:  39.8592°N, 76.2955°W
Report Text: KLNS 220925Z AUTO 02007KT 10SM BKN021 BKN041 OVC085 12/09 A2989 RMK AO2 T01220089
Loading
Personal Weather Stations






























Interactive Weather Map
Tropical Storm Tracking
New forecast layout! Learn more

10-Day Weather Forecast

Advertisements
Track Severe Weather on mobile